Time;durP1;ratioP1;P1;durP2;ratioP2;P2;SDS_P1;SDS_P2;PMS_P1;PMS_P2;Temp;Humidity;BMP_temperature;BMP_pressure;BME280_temperature;BME280_humidity;BME280_pressure;Samples;Min_cycle;Max_cycle;Signal;HPM_P1;HPM_P2
2022/08/31 03:01:45;;;;;;;1.27;1.17;;;20.70;81.50;;;;;;5601183;22;20475;-75
2022/08/31 03:04:12;;;;;;;0.97;0.97;;;20.60;81.80;;;;;;5035961;28;20501;-75
2022/08/31 03:06:38;;;;;;;1.00;0.90;;;20.50;81.90;;;;;;5035623;28;21004;-75
2022/08/31 03:09:05;;;;;;;1.00;0.90;;;20.50;82.00;;;;;;5035543;28;20443;-75
2022/08/31 03:11:32;;;;;;;0.83;0.83;;;20.20;82.90;;;;;;5035684;28;20486;-75
2022/08/31 03:14:02;;;;;;;0.80;0.80;;;19.90;83.60;;;;;;5037027;28;20451;-71
2022/08/31 03:16:28;;;;;;;0.90;0.90;;;19.90;84.10;;;;;;5035678;28;20447;-75
2022/08/31 03:18:57;;;;;;;1.20;1.10;;;19.80;84.30;;;;;;5035409;28;20951;-75
2022/08/31 03:21:23;;;;;;;1.37;1.30;;;19.90;83.90;;;;;;5035538;28;20467;-75
2022/08/31 03:23:50;;;;;;;1.00;1.00;;;20.10;83.90;;;;;;5035594;28;20455;-75
2022/08/31 03:26:17;;;;;;;1.10;1.00;;;20.20;83.50;;;;;;5035534;28;20451;-72
2022/08/31 03:28:43;;;;;;;1.10;1.00;;;20.20;83.30;;;;;;5035452;28;20506;-75
2022/08/31 03:31:10;;;;;;;0.90;0.90;;;20.30;83.30;;;;;;5034594;28;20471;-75
2022/08/31 03:33:37;;;;;;;1.07;0.97;;;20.30;83.30;;;;;;5034999;28;20502;-75
2022/08/31 03:36:05;;;;;;;1.10;1.00;;;20.30;83.20;;;;;;5035344;28;20444;-74
2022/08/31 03:38:33;;;;;;;1.30;1.20;;;20.40;83.00;;;;;;5035367;28;20463;-75
2022/08/31 03:41:01;;;;;;;1.10;1.00;;;20.40;83.00;;;;;;5035201;28;20471;-75
2022/08/31 03:43:28;;;;;;;1.00;1.00;;;20.40;82.80;;;;;;5035222;28;20460;-75
2022/08/31 03:45:55;;;;;;;1.20;1.10;;;20.40;82.80;;;;;;5035173;28;20455;-75
2022/08/31 03:48:21;;;;;;;0.90;0.90;;;20.30;82.40;;;;;;5035115;28;20448;-75
2022/08/31 03:50:48;;;;;;;0.97;0.97;;;20.20;83.30;;;;;;5034700;28;20470;-75
2022/08/31 03:53:16;;;;;;;0.90;0.80;;;20.20;83.30;;;;;;5034935;28;20487;-75
2022/08/31 03:55:44;;;;;;;0.87;0.87;;;20.10;83.70;;;;;;5034678;28;20453;-75
2022/08/31 03:58:11;;;;;;;1.20;1.10;;;20.00;83.80;;;;;;5034946;28;20459;-75
2022/08/31 04:00:38;;;;;;;1.00;1.00;;;19.90;84.20;;;;;;5034784;28;20486;-75
2022/08/31 04:03:05;;;;;;;1.20;1.20;;;19.70;84.80;;;;;;5034935;28;20417;-75
2022/08/31 04:05:34;;;;;;;1.03;1.03;;;19.40;85.80;;;;;;5034814;28;20458;-75
2022/08/31 04:08:01;;;;;;;1.20;1.10;;;19.30;86.90;;;;;;5034745;28;20451;-75
2022/08/31 04:10:29;;;;;;;1.30;1.20;;;19.40;86.50;;;;;;5034601;28;20443;-75
2022/08/31 04:12:56;;;;;;;1.30;1.20;;;19.50;86.60;;;;;;5034544;28;20483;-75
2022/08/31 04:15:22;;;;;;;1.20;1.10;;;19.50;86.40;;;;;;5034579;28;20443;-75
2022/08/31 04:17:49;;;;;;;1.03;1.00;;;19.50;86.10;;;;;;5034227;28;21016;-75
2022/08/31 04:20:16;;;;;;;1.20;1.10;;;19.50;86.40;;;;;;5034491;28;20447;-75
2022/08/31 04:22:42;;;;;;;1.00;1.00;;;19.40;86.50;;;;;;5034370;28;20467;-75
2022/08/31 04:25:09;;;;;;;1.00;1.00;;;19.60;86.30;;;;;;5034418;28;20497;-75
2022/08/31 04:27:38;;;;;;;0.93;0.93;;;19.70;86.00;;;;;;5034358;28;20506;-75
2022/08/31 04:30:06;;;;;;;1.20;1.10;;;19.80;85.70;;;;;;5034325;28;20520;-75
2022/08/31 04:32:33;;;;;;;1.00;1.00;;;19.90;85.20;;;;;;5033843;28;20986;-75
2022/08/31 04:35:00;;;;;;;0.90;0.90;;;19.90;84.80;;;;;;5034275;28;20530;-75
2022/08/31 04:37:27;;;;;;;1.03;1.03;;;19.80;84.60;;;;;;5034175;28;20444;-75
2022/08/31 04:39:56;;;;;;;1.00;1.00;;;19.90;84.60;;;;;;5034174;28;20443;-75
2022/08/31 04:42:24;;;;;;;1.00;1.00;;;19.90;84.70;;;;;;5033845;28;20554;-74
2022/08/31 04:44:52;;;;;;;1.00;1.00;;;20.00;84.30;;;;;;5033881;28;20478;-74
2022/08/31 04:47:19;;;;;;;1.20;1.10;;;20.00;84.10;;;;;;5033709;28;20448;-73
2022/08/31 04:49:46;;;;;;;0.97;0.97;;;20.00;84.00;;;;;;5033938;28;20478;-74
2022/08/31 04:52:12;;;;;;;1.37;1.10;;;19.90;84.00;;;;;;5033847;28;20491;-74
2022/08/31 04:54:39;;;;;;;0.90;0.90;;;20.00;84.30;;;;;;5033921;28;20478;-74
2022/08/31 04:57:06;;;;;;;1.10;1.00;;;20.00;84.20;;;;;;5033590;28;21008;-75
2022/08/31 04:59:33;;;;;;;0.90;0.90;;;19.90;84.30;;;;;;5034017;28;20506;-73
2022/08/31 05:02:02;;;;;;;1.13;1.13;;;19.80;84.50;;;;;;5033506;28;20475;-74
2022/08/31 05:04:30;;;;;;;1.20;1.10;;;19.70;84.70;;;;;;5033805;28;20451;-74
2022/08/31 05:06:57;;;;;;;0.90;0.90;;;19.70;85.00;;;;;;5033731;28;20456;-73
2022/08/31 05:09:24;;;;;;;0.90;0.90;;;19.60;85.10;;;;;;5033373;28;20451;-74
2022/08/31 05:11:52;;;;;;;0.97;0.97;;;19.50;85.40;;;;;;5033479;28;20483;-74
2022/08/31 05:14:20;;;;;;;2.63;0.90;;;19.50;85.20;;;;;;5033602;28;20447;-73
2022/08/31 05:16:47;;;;;;;1.10;1.10;;;19.60;85.20;;;;;;5033574;28;20538;-73
2022/08/31 05:19:16;;;;;;;1.07;1.07;;;19.70;85.00;;;;;;5033527;28;20494;-74
2022/08/31 05:21:44;;;;;;;1.20;0.90;;;19.80;84.50;;;;;;5033439;28;20471;-74
2022/08/31 05:24:13;;;;;;;0.93;0.93;;;19.80;84.10;;;;;;5033486;28;20506;-74
2022/08/31 05:26:43;;;;;;;1.07;1.00;;;19.90;84.10;;;;;;5033429;28;20450;-75
2022/08/31 05:29:12;;;;;;;0.80;0.80;;;20.00;84.20;;;;;;5033409;28;20460;-74
2022/08/31 05:31:38;;;;;;;0.90;0.90;;;19.90;84.00;;;;;;5033354;28;20553;-75
2022/08/31 05:34:06;;;;;;;0.93;0.90;;;19.90;83.90;;;;;;5033972;28;20482;-76
2022/08/31 05:36:35;;;;;;;0.90;0.90;;;19.90;83.90;;;;;;5033397;28;20498;-76
2022/08/31 05:39:02;;;;;;;0.93;0.93;;;19.90;83.80;;;;;;5033348;28;20502;-75
2022/08/31 05:41:29;;;;;;;0.90;0.90;;;20.00;83.90;;;;;;5032926;28;20468;-74
2022/08/31 05:43:56;;;;;;;0.80;0.80;;;20.00;83.80;;;;;;5033295;28;20444;-75
2022/08/31 05:46:23;;;;;;;1.10;1.10;;;20.00;83.50;;;;;;5033851;28;20447;-75
2022/08/31 05:48:49;;;;;;;0.97;0.87;;;19.70;84.00;;;;;;5033103;28;20942;-75
2022/08/31 05:51:18;;;;;;;0.80;0.80;;;19.70;84.70;;;;;;5033126;28;20471;-76
2022/08/31 05:53:46;;;;;;;0.77;0.77;;;19.70;84.80;;;;;;5033190;28;20487;-75
2022/08/31 05:56:15;;;;;;;0.90;0.90;;;19.60;84.60;;;;;;5035698;28;20938;-75
2022/08/31 05:58:44;;;;;;;0.80;0.80;;;19.60;84.50;;;;;;5037184;28;20825;-75
2022/08/31 06:01:15;;;;;;;0.80;0.80;;;19.60;84.80;;;;;;5036910;28;20491;-76
2022/08/31 06:03:42;;;;;;;0.90;0.90;;;19.70;84.50;;;;;;5037268;28;20427;-75
2022/08/31 06:06:10;;;;;;;0.90;0.70;;;19.70;83.80;;;;;;5036767;28;20447;-75
2022/08/31 06:08:37;;;;;;;0.90;0.90;;;19.80;83.60;;;;;;5037082;28;20448;-75
2022/08/31 06:11:13;;;;;;;0.90;0.90;;;19.80;83.70;;;;;;5036692;28;21025;-75
2022/08/31 06:13:39;;;;;;;1.00;0.90;;;19.80;83.90;;;;;;5036988;28;20466;-75
2022/08/31 06:16:07;;;;;;;0.90;0.80;;;19.80;83.70;;;;;;5036988;28;20447;-75
2022/08/31 06:18:35;;;;;;;1.13;1.00;;;19.70;83.50;;;;;;5036753;28;20923;-75
2022/08/31 06:21:02;;;;;;;0.70;0.70;;;19.80;83.90;;;;;;5036787;28;20482;-75
2022/08/31 06:23:29;;;;;;;0.77;0.77;;;19.90;83.70;;;;;;5036695;28;20443;-76
2022/08/31 06:26:02;;;;;;;0.90;0.80;;;19.90;83.60;;;;;;5036366;28;20970;-76
2022/08/31 06:28:35;;;;;;;0.80;0.80;;;19.90;83.30;;;;;;5037664;28;21013;-75
2022/08/31 06:31:10;;;;;;;0.80;0.80;;;20.00;83.30;;;;;;5050190;28;20470;-75
2022/08/31 06:33:37;;;;;;;1.03;0.90;;;20.10;83.00;;;;;;5049922;28;20478;-76
2022/08/31 06:36:09;;;;;;;2.87;0.90;;;20.10;83.10;;;;;;5048465;28;20458;-75
2022/08/31 06:38:36;;;;;;;1.00;0.90;;;20.20;82.90;;;;;;5047435;28;20436;-76
2022/08/31 06:41:11;;;;;;;1.10;1.00;;;20.10;83.00;;;;;;5040451;28;20478;-76
2022/08/31 06:43:39;;;;;;;1.00;0.90;;;20.20;82.90;;;;;;5039177;28;20450;-75
2022/08/31 06:46:06;;;;;;;1.00;0.90;;;20.20;83.00;;;;;;5038709;28;20478;-76
2022/08/31 06:48:33;;;;;;;1.03;1.00;;;20.20;82.80;;;;;;5036004;28;20815;-75
2022/08/31 06:51:00;;;;;;;1.10;1.00;;;20.30;82.80;;;;;;5036232;28;20526;-75
2022/08/31 06:53:27;;;;;;;1.10;1.00;;;20.30;82.60;;;;;;5036077;28;20479;-75
2022/08/31 06:55:54;;;;;;;0.90;0.90;;;20.20;83.00;;;;;;5036260;28;20451;-76
2022/08/31 06:58:20;;;;;;;0.97;0.97;;;20.30;83.10;;;;;;5036200;28;20448;-76
2022/08/31 07:00:49;;;;;;;1.03;1.00;;;20.30;83.10;;;;;;5036024;28;20557;-76
2022/08/31 07:03:31;;;;;;;0.90;0.90;;;20.30;83.00;;;;;;5036168;28;20677;-76
2022/08/31 07:06:02;;;;;;;1.00;0.90;;;20.30;83.10;;;;;;5035786;28;20432;-75
2022/08/31 07:08:29;;;;;;;0.90;0.90;;;20.30;83.10;;;;;;5036189;28;20455;-75
2022/08/31 07:10:56;;;;;;;0.80;0.80;;;20.30;82.90;;;;;;5035791;28;20514;-75
2022/08/31 07:13:23;;;;;;;0.80;0.80;;;20.30;82.70;;;;;;5037569;28;20912;-75
2022/08/31 07:15:51;;;;;;;0.90;0.90;;;20.30;83.00;;;;;;5038204;28;20444;-75
2022/08/31 07:18:18;;;;;;;1.03;1.03;;;20.30;82.70;;;;;;5038378;28;20455;-76
2022/08/31 07:20:44;;;;;;;0.80;0.80;;;20.30;83.10;;;;;;5038552;28;20471;-74
2022/08/31 07:23:11;;;;;;;0.87;0.77;;;20.30;83.40;;;;;;5037962;28;20467;-75
2022/08/31 07:25:39;;;;;;;0.90;0.87;;;20.30;83.30;;;;;;5037777;28;20447;-76
2022/08/31 07:28:05;;;;;;;1.13;1.03;;;20.20;83.20;;;;;;5038050;28;20947;-76
2022/08/31 07:30:40;;;;;;;1.00;0.90;;;20.20;83.20;;;;;;5037509;28;20947;-75
2022/08/31 07:33:09;;;;;;;0.90;0.90;;;20.20;83.10;;;;;;5037023;28;20470;-76
2022/08/31 07:35:36;;;;;;;0.90;0.90;;;20.20;83.30;;;;;;5036495;28;20487;-76
2022/08/31 07:43:32;;;;;;;0.87;0.80;;;20.40;83.10;;;;;;5036696;28;20538;-75
2022/08/31 07:45:59;;;;;;;1.07;1.00;;;20.40;82.80;;;;;;5036552;28;20454;-75
2022/08/31 07:48:27;;;;;;;1.00;1.00;;;20.50;82.80;;;;;;5035154;28;20455;-75
2022/08/31 07:50:55;;;;;;;1.57;1.00;;;20.50;82.70;;;;;;5035011;28;20467;-75
2022/08/31 07:53:21;;;;;;;1.03;1.03;;;20.60;82.40;;;;;;5035099;28;20849;-75
2022/08/31 07:55:49;;;;;;;1.10;0.93;;;20.60;82.00;;;;;;5034850;28;20927;-75
2022/08/31 07:58:16;;;;;;;0.90;0.90;;;20.60;81.00;;;;;;5035019;28;20455;-76
2022/08/31 08:00:46;;;;;;;1.47;0.90;;;20.60;81.10;;;;;;5034727;28;20467;-76
2022/08/31 08:03:13;;;;;;;1.30;1.20;;;20.60;81.30;;;;;;5035034;28;20436;-75
2022/08/31 08:05:42;;;;;;;0.90;0.90;;;20.50;80.80;;;;;;5034787;28;20456;-75
2022/08/31 08:08:11;;;;;;;1.13;0.90;;;20.60;80.80;;;;;;5034763;28;20455;-76
2022/08/31 08:10:46;;;;;;;1.10;1.10;;;20.50;80.90;;;;;;5034611;28;20490;-75
2022/08/31 08:13:14;;;;;;;0.83;0.80;;;20.50;81.00;;;;;;5034350;28;20974;-75
2022/08/31 08:15:41;;;;;;;0.93;0.90;;;20.60;81.40;;;;;;5034663;28;20551;-75
2022/08/31 08:18:09;;;;;;;1.13;1.03;;;20.70;81.70;;;;;;5033898;28;20864;-75
2022/08/31 08:20:36;;;;;;;1.13;0.93;;;20.70;81.70;;;;;;5034109;28;20996;-75
2022/08/31 08:23:10;;;;;;;0.90;0.90;;;20.70;82.10;;;;;;5034438;28;20455;-76
2022/08/31 08:25:36;;;;;;;0.90;0.90;;;20.80;81.90;;;;;;5034484;28;20440;-75
2022/08/31 08:28:03;;;;;;;0.90;0.90;;;20.80;81.70;;;;;;5034353;28;20451;-75
2022/08/31 08:30:30;;;;;;;1.27;1.13;;;20.80;81.70;;;;;;5034316;28;20471;-75
2022/08/31 08:33:02;;;;;;;1.03;0.93;;;20.80;81.70;;;;;;5034170;28;20537;-75
2022/08/31 08:35:29;;;;;;;1.10;1.10;;;20.80;81.40;;;;;;5034227;28;20469;-75
2022/08/31 08:37:57;;;;;;;0.90;0.90;;;20.80;80.90;;;;;;5034201;28;20459;-75
2022/08/31 08:40:32;;;;;;;1.00;0.97;;;20.90;80.20;;;;;;5034171;28;20494;-76
2022/08/31 08:43:03;;;;;;;1.00;0.90;;;20.90;79.60;;;;;;5034136;28;20431;-76
2022/08/31 08:45:31;;;;;;;1.13;1.10;;;21.00;79.50;;;;;;5034217;28;20435;-76
2022/08/31 08:47:58;;;;;;;1.20;1.10;;;21.00;80.10;;;;;;5034131;28;20448;-76
2022/08/31 08:50:28;;;;;;;0.90;0.90;;;21.00;78.00;;;;;;5034029;28;20493;-76
2022/08/31 08:52:57;;;;;;;0.80;0.80;;;20.80;77.60;;;;;;5033930;28;20974;-75
2022/08/31 08:55:30;;;;;;;0.80;0.80;;;20.90;79.30;;;;;;5034092;28;20451;-74
2022/08/31 08:57:57;;;;;;;0.90;0.90;;;21.00;79.80;;;;;;5034137;28;20826;-77
2022/08/31 09:00:27;;;;;;;0.90;0.90;;;21.00;79.90;;;;;;5033953;28;20459;-76
2022/08/31 09:02:59;;;;;;;1.10;1.00;;;21.10;80.40;;;;;;5033750;28;20993;-75
2022/08/31 09:05:48;;;;;;;0.80;0.80;;;21.20;80.80;;;;;;5034032;28;20794;-75
2022/08/31 09:08:49;;;;;;;1.00;0.90;;;21.20;78.70;;;;;;5034684;28;20498;-73
2022/08/31 09:11:26;;;;;;;1.03;1.03;;;21.30;78.20;;;;;;5029507;28;20559;-75
2022/08/31 09:14:17;;;;;;;0.80;0.80;;;21.30;79.10;;;;;;5033646;28;20978;-74
2022/08/31 09:16:52;;;;;;;0.90;0.90;;;21.40;78.60;;;;;;5033494;28;20845;-75
2022/08/31 09:19:20;;;;;;;1.17;0.90;;;21.40;78.50;;;;;;5033695;28;20488;-75
2022/08/31 09:21:49;;;;;;;0.90;0.90;;;21.40;78.80;;;;;;5033278;28;20990;-75
2022/08/31 09:24:19;;;;;;;0.90;0.90;;;21.40;79.40;;;;;;5033542;28;20452;-75
2022/08/31 09:27:16;;;;;;;0.90;0.90;;;21.30;79.40;;;;;;5033543;28;20443;-75
2022/08/31 09:29:43;;;;;;;1.03;1.00;;;21.20;79.80;;;;;;5033649;28;20439;-76
2022/08/31 09:32:16;;;;;;;0.90;0.90;;;21.20;80.00;;;;;;5033446;28;20831;-76
2022/08/31 09:34:53;;;;;;;0.90;0.90;;;21.10;80.00;;;;;;5033415;28;20522;-76
2022/08/31 09:37:22;;;;;;;1.20;1.10;;;21.30;80.50;;;;;;5033159;28;20911;-75
2022/08/31 09:39:51;;;;;;;1.00;1.00;;;21.40;81.00;;;;;;5033507;28;20458;-75
2022/08/31 09:42:29;;;;;;;1.00;1.00;;;21.60;80.70;;;;;;5033010;28;20974;-75
2022/08/31 09:44:59;;;;;;;1.20;1.10;;;21.60;79.30;;;;;;5033840;28;20442;-76
2022/08/31 09:47:54;;;;;;;1.20;1.10;;;21.80;78.40;;;;;;5033539;28;20447;-76
2022/08/31 09:50:29;;;;;;;1.10;1.00;;;21.90;78.00;;;;;;5020569;28;20494;-76
2022/08/31 09:56:14;;;;;;;0.73;0.73;;;22.00;78.50;;;;;;5033078;28;20407;-76
2022/08/31 09:58:45;;;;;;;0.80;0.80;;;22.10;78.20;;;;;;5032917;28;20903;-77
2022/08/31 10:01:17;;;;;;;0.80;0.80;;;22.10;77.20;;;;;;5032905;28;20479;-77
2022/08/31 10:03:46;;;;;;;1.20;1.10;;;22.10;76.80;;;;;;5033165;28;20451;-77
2022/08/31 10:06:36;;;;;;;1.50;1.00;;;22.00;77.20;;;;;;5032957;28;20497;-77
2022/08/31 10:09:09;;;;;;;1.00;1.00;;;21.90;78.10;;;;;;5037733;28;20439;-77
2022/08/31 10:11:38;;;;;;;0.93;0.93;;;21.90;78.30;;;;;;5046639;28;20478;-77
2022/08/31 10:14:15;;;;;;;1.00;0.80;;;21.80;78.80;;;;;;5034382;28;20483;-77
2022/08/31 10:16:47;;;;;;;1.13;0.93;;;21.70;77.00;;;;;;5032992;28;20427;-77
2022/08/31 10:19:20;;;;;;;0.87;0.87;;;21.60;77.90;;;;;;5033035;28;20503;-76
2022/08/31 10:21:50;;;;;;;1.10;1.00;;;21.60;78.10;;;;;;5032989;28;20510;-76
2022/08/31 10:24:26;;;;;;;1.17;1.07;;;21.60;78.90;;;;;;5032952;28;20439;-76
2022/08/31 10:27:03;;;;;;;1.10;1.10;;;21.50;77.90;;;;;;5032947;28;20427;-76
2022/08/31 10:29:38;;;;;;;0.90;0.90;;;21.50;78.80;;;;;;5032599;28;20518;-75
2022/08/31 10:32:23;;;;;;;1.10;1.00;;;21.40;79.00;;;;;;5032872;28;20533;-75
2022/08/31 10:35:05;;;;;;;1.10;1.00;;;21.50;79.00;;;;;;5032603;28;20554;-74
2022/08/31 10:37:48;;;;;;;1.10;0.97;;;21.60;78.90;;;;;;5033367;28;20519;-75
2022/08/31 10:40:17;;;;;;;1.10;1.07;;;21.70;78.90;;;;;;5032877;28;20519;-75
2022/08/31 10:42:56;;;;;;;1.20;1.10;;;21.60;77.80;;;;;;5035655;28;20558;-75
2022/08/31 10:45:27;;;;;;;1.40;1.30;;;21.60;77.60;;;;;;5036442;28;20432;-75
2022/08/31 10:47:56;;;;;;;1.10;1.00;;;21.60;77.80;;;;;;5036020;28;20803;-74
2022/08/31 10:50:30;;;;;;;1.30;1.10;;;21.70;77.60;;;;;;5036158;28;20455;-74
2022/08/31 10:53:10;;;;;;;1.00;1.00;;;21.70;77.80;;;;;;5036204;28;20455;-75
2022/08/31 10:55:45;;;;;;;1.07;1.07;;;21.70;77.60;;;;;;5036226;28;20463;-75
2022/08/31 10:58:22;;;;;;;1.40;1.00;;;21.60;77.80;;;;;;5036176;28;20443;-75
2022/08/31 11:00:54;;;;;;;1.00;0.90;;;21.70;77.70;;;;;;5035943;28;20466;-76
2022/08/31 11:03:37;;;;;;;1.30;1.20;;;21.70;77.50;;;;;;5043300;28;20408;-74
2022/08/31 11:06:12;;;;;;;0.90;0.90;;;21.80;77.30;;;;;;5044668;28;20412;-75
2022/08/31 11:08:56;;;;;;;1.10;1.10;;;21.90;76.50;;;;;;5043473;28;20449;-75
2022/08/31 11:11:34;;;;;;;0.97;0.93;;;22.00;76.30;;;;;;5044830;28;20464;-75
2022/08/31 11:14:19;;;;;;;1.20;1.10;;;22.00;75.60;;;;;;5044825;28;20523;-75
2022/08/31 11:17:07;;;;;;;1.03;1.03;;;22.00;75.80;;;;;;5045738;28;20435;-75
2022/08/31 11:20:08;;;;;;;0.80;0.80;;;21.90;75.40;;;;;;5044545;28;20505;-76
2022/08/31 11:22:55;;;;;;;1.10;1.00;;;21.90;75.50;;;;;;5032431;28;20472;-74
2022/08/31 11:25:59;;;;;;;1.10;1.10;;;21.90;76.20;;;;;;5043429;28;20470;-76
2022/08/31 11:28:32;;;;;;;2.60;1.10;;;22.00;75.40;;;;;;5040825;28;20455;-75
2022/08/31 11:31:01;;;;;;;1.10;1.00;;;21.90;75.30;;;;;;5035540;28;20834;-75
2022/08/31 11:33:30;;;;;;;1.00;1.00;;;21.90;75.50;;;;;;5035231;28;20456;-74
2022/08/31 11:36:01;;;;;;;1.00;0.80;;;21.80;75.30;;;;;;5035400;28;20443;-75
2022/08/31 11:38:44;;;;;;;1.10;1.10;;;21.80;75.20;;;;;;5035429;28;20467;-75
2022/08/31 11:41:10;;;;;;;0.90;0.90;;;21.70;75.20;;;;;;5035262;28;20478;-75
2022/08/31 11:43:47;;;;;;;1.17;1.10;;;21.70;76.00;;;;;;5035289;28;20510;-75
2022/08/31 11:46:51;;;;;;;1.30;1.20;;;21.60;76.30;;;;;;5034990;28;20933;-75
2022/08/31 11:49:43;;;;;;;1.13;1.03;;;21.70;76.40;;;;;;5024113;28;20910;-75
2022/08/31 11:52:37;;;;;;;1.10;1.10;;;21.70;75.70;;;;;;5034492;28;20464;-74
2022/08/31 11:55:24;;;;;;;1.07;1.00;;;21.80;76.10;;;;;;5034770;28;20470;-75
2022/08/31 11:58:30;;;;;;;1.00;1.00;;;21.80;75.80;;;;;;5034993;28;20439;-74
2022/08/31 12:01:08;;;;;;;1.17;1.07;;;21.70;76.40;;;;;;5035003;28;20486;-75
2022/08/31 12:03:50;;;;;;;1.00;1.00;;;21.80;76.20;;;;;;5034916;28;20451;-75
2022/08/31 12:07:05;;;;;;;1.10;1.10;;;21.70;76.80;;;;;;5034877;28;20485;-75
2022/08/31 12:10:03;;;;;;;1.20;1.10;;;21.80;76.70;;;;;;5034554;28;20839;-75
2022/08/31 12:12:48;;;;;;;1.00;1.00;;;21.90;76.80;;;;;;5034723;28;20493;-75
2022/08/31 12:15:25;;;;;;;1.03;0.93;;;22.00;76.60;;;;;;5034797;28;20473;-75
2022/08/31 12:18:04;;;;;;;0.90;0.90;;;22.00;76.30;;;;;;5034728;28;20484;-76
2022/08/31 12:23:39;;;;;;;1.20;1.10;;;21.90;75.90;;;;;;5034453;28;20910;-76
2022/08/31 12:26:23;;;;;;;1.33;1.23;;;22.00;76.10;;;;;;5034550;28;20438;-76
2022/08/31 12:29:09;;;;;;;1.20;1.10;;;22.00;75.90;;;;;;5034555;28;20435;-76
2022/08/31 12:31:39;;;;;;;1.03;1.03;;;22.00;75.10;;;;;;5034541;28;20974;-72
2022/08/31 12:34:11;;;;;;;1.10;1.00;;;22.10;75.50;;;;;;5036099;28;20541;-75
2022/08/31 12:36:37;;;;;;;1.00;1.00;;;22.30;75.40;;;;;;5035196;28;20461;-74
2022/08/31 12:39:07;;;;;;;1.10;1.00;;;22.40;74.90;;;;;;5033988;28;20452;-73
2022/08/31 12:41:37;;;;;;;1.00;1.00;;;22.50;74.10;;;;;;5034189;28;20467;-75
2022/08/31 12:44:04;;;;;;;1.30;1.10;;;22.60;74.00;;;;;;5034177;28;20431;-75
2022/08/31 12:46:47;;;;;;;1.20;1.10;;;22.60;74.10;;;;;;5034122;28;20443;-74
2022/08/31 12:49:46;;;;;;;0.97;0.97;;;22.60;73.00;;;;;;5034152;28;20436;-74
2022/08/31 12:52:25;;;;;;;1.20;1.10;;;22.60;73.50;;;;;;5033910;28;20472;-75
2022/08/31 12:55:22;;;;;;;1.00;0.90;;;22.70;73.20;;;;;;5033874;28;20466;-74
2022/08/31 12:58:02;;;;;;;1.27;0.93;;;22.60;72.30;;;;;;5033928;28;20467;-72
2022/08/31 13:00:31;;;;;;;1.30;1.20;;;22.70;72.70;;;;;;5033819;28;20489;-74
2022/08/31 13:03:00;;;;;;;0.87;0.87;;;22.70;72.50;;;;;;5033540;28;20471;-73
2022/08/31 13:05:30;;;;;;;1.20;0.90;;;22.70;72.00;;;;;;5033189;28;20826;-73
2022/08/31 13:07:57;;;;;;;1.40;1.30;;;22.70;73.10;;;;;;5033768;28;20444;-75
2022/08/31 13:10:29;;;;;;;1.17;1.00;;;22.70;73.00;;;;;;5033402;28;20462;-74
2022/08/31 13:13:00;;;;;;;1.37;1.27;;;22.80;73.70;;;;;;5034218;28;20466;-74
2022/08/31 13:15:29;;;;;;;1.10;1.10;;;22.90;70.90;;;;;;5033576;28;20901;-73
2022/08/31 13:17:57;;;;;;;1.10;1.00;;;22.90;72.70;;;;;;5033297;28;20459;-75
2022/08/31 13:20:28;;;;;;;1.00;0.90;;;23.00;71.10;;;;;;5033448;28;20443;-75
2022/08/31 13:23:01;;;;;;;1.37;0.90;;;23.20;71.20;;;;;;5033499;28;20428;-74
2022/08/31 13:25:37;;;;;;;1.20;1.10;;;23.40;70.10;;;;;;5033142;28;20448;-75
2022/08/31 13:28:18;;;;;;;1.10;1.00;;;23.50;69.50;;;;;;5033545;28;20439;-74
2022/08/31 13:30:55;;;;;;;0.90;0.90;;;23.50;68.70;;;;;;5033370;28;20464;-74
2022/08/31 13:33:25;;;;;;;1.13;1.10;;;23.50;69.50;;;;;;5033452;28;20428;-75
2022/08/31 13:35:56;;;;;;;1.40;1.30;;;23.50;69.20;;;;;;5033245;28;20488;-75
2022/08/31 13:38:39;;;;;;;2.10;1.37;;;23.50;70.30;;;;;;5033431;28;20432;-74
2022/08/31 13:41:07;;;;;;;1.37;1.10;;;23.50;70.00;;;;;;5033291;28;20473;-74
2022/08/31 13:43:35;;;;;;;1.10;1.00;;;23.40;70.70;;;;;;5032957;28;20825;-74
2022/08/31 13:46:02;;;;;;;1.23;1.13;;;23.50;69.90;;;;;;5033278;28;20448;-74
2022/08/31 13:48:32;;;;;;;0.87;0.87;;;23.50;68.80;;;;;;5033301;28;20447;-74
2022/08/31 13:51:05;;;;;;;1.30;1.20;;;23.70;69.80;;;;;;5033115;28;20517;-74
2022/08/31 13:53:38;;;;;;;0.97;0.97;;;23.80;68.80;;;;;;5033210;28;20436;-73
2022/08/31 13:59:25;;;;;;;1.30;0.97;;;24.10;68.20;;;;;;5032981;28;20454;-74
2022/08/31 14:01:55;;;;;;;1.67;1.20;;;24.50;68.30;;;;;;5032793;28;20483;-74
2022/08/31 14:04:59;;;;;;;0.90;0.90;;;24.80;66.90;;;;;;5033070;28;20530;-75
2022/08/31 14:07:30;;;;;;;1.30;0.90;;;25.20;66.30;;;;;;5023384;28;20495;-74
2022/08/31 14:09:59;;;;;;;0.90;0.90;;;25.40;64.90;;;;;;5033078;28;20773;-75
2022/08/31 14:12:35;;;;;;;0.97;0.97;;;25.50;64.80;;;;;;5032645;28;20969;-74
2022/08/31 14:15:17;;;;;;;0.90;0.90;;;25.50;64.70;;;;;;5032974;28;20463;-75
2022/08/31 14:17:46;;;;;;;1.07;1.00;;;25.50;64.40;;;;;;5036522;28;20519;-75
2022/08/31 14:20:35;;;;;;;0.80;0.80;;;25.40;64.10;;;;;;5036490;28;20454;-74
2022/08/31 14:23:30;;;;;;;1.20;1.10;;;25.20;64.60;;;;;;5032589;28;20451;-73
2022/08/31 14:26:00;;;;;;;0.87;0.87;;;25.20;65.80;;;;;;5036895;28;20419;-74
2022/08/31 14:28:41;;;;;;;0.97;0.90;;;25.40;65.90;;;;;;5036708;28;20443;-75
2022/08/31 14:31:22;;;;;;;1.30;1.00;;;25.60;64.00;;;;;;5036647;28;20478;-75
2022/08/31 14:33:54;;;;;;;1.00;0.90;;;25.70;62.30;;;;;;5036796;28;20428;-76
2022/08/31 14:36:23;;;;;;;1.17;1.07;;;25.70;63.10;;;;;;5036571;28;20471;-75
2022/08/31 14:38:53;;;;;;;1.17;1.07;;;25.80;62.30;;;;;;5036564;28;20443;-76
2022/08/31 14:41:26;;;;;;;0.90;0.90;;;25.90;62.80;;;;;;5036593;28;20499;-76
2022/08/31 14:43:54;;;;;;;0.90;0.90;;;25.90;63.30;;;;;;5036564;28;20431;-75
2022/08/31 14:46:26;;;;;;;0.80;0.80;;;25.60;62.60;;;;;;5036465;28;20455;-75
2022/08/31 14:48:53;;;;;;;1.40;1.00;;;25.30;62.90;;;;;;5036388;28;20440;-75
2022/08/31 14:51:21;;;;;;;0.90;0.90;;;25.00;66.10;;;;;;5036281;28;20525;-75
2022/08/31 14:53:47;;;;;;;1.00;1.00;;;24.80;64.10;;;;;;5035843;28;21001;-76
2022/08/31 14:56:19;;;;;;;1.00;0.90;;;24.60;66.50;;;;;;5035851;28;21027;-76
2022/08/31 14:58:46;;;;;;;1.37;0.80;;;24.40;68.60;;;;;;5036096;28;20467;-76
2022/08/31 15:01:13;;;;;;;1.00;0.90;;;24.30;68.00;;;;;;5035814;28;20505;-75
2022/08/31 15:03:43;;;;;;;0.90;0.90;;;23.80;69.20;;;;;;5036048;28;20448;-74
2022/08/31 15:06:10;;;;;;;1.60;0.80;;;23.90;69.40;;;;;;5036302;28;20446;-75
2022/08/31 15:08:37;;;;;;;0.90;0.90;;;24.00;68.80;;;;;;5035892;28;20456;-75
2022/08/31 15:11:04;;;;;;;0.90;0.90;;;24.10;69.00;;;;;;5035743;28;20467;-74
2022/08/31 15:13:32;;;;;;;0.90;0.90;;;24.30;69.20;;;;;;5035763;28;20454;-75
2022/08/31 15:16:01;;;;;;;0.87;0.87;;;25.20;67.40;;;;;;5037174;28;20487;-75
2022/08/31 15:18:28;;;;;;;1.00;0.93;;;26.20;65.40;;;;;;5035674;28;20443;-76
2022/08/31 15:20:56;;;;;;;1.13;1.03;;;27.10;62.40;;;;;;5035374;28;20467;-75
2022/08/31 15:23:23;;;;;;;0.87;0.80;;;27.30;62.00;;;;;;5035641;28;20447;-76
2022/08/31 15:25:50;;;;;;;1.00;0.90;;;27.60;60.50;;;;;;5035579;28;20498;-76
2022/08/31 15:28:17;;;;;;;1.00;0.90;;;27.60;61.30;;;;;;5035361;28;20527;-75
2022/08/31 15:30:43;;;;;;;1.00;0.90;;;27.20;60.70;;;;;;5035303;28;20464;-76
2022/08/31 15:33:10;;;;;;;0.80;0.80;;;26.90;61.50;;;;;;5035427;28;20447;-76
2022/08/31 15:35:40;;;;;;;1.00;0.90;;;26.60;60.60;;;;;;5035316;28;20487;-76
2022/08/31 15:38:09;;;;;;;0.90;0.90;;;26.20;62.60;;;;;;5035326;28;20818;-75
2022/08/31 15:40:36;;;;;;;0.87;0.83;;;25.80;64.90;;;;;;5035224;28;20840;-76
2022/08/31 15:43:08;;;;;;;1.00;1.00;;;25.50;64.80;;;;;;5035060;28;20455;-75
2022/08/31 15:45:35;;;;;;;0.90;0.90;;;25.10;64.60;;;;;;5035877;28;20448;-76
2022/08/31 15:50:51;;;;;;;0.90;0.90;;;23.40;67.50;;;;;;5034876;28;20803;-75
2022/08/31 15:53:26;;;;;;;1.20;1.10;;;22.80;71.30;;;;;;5035128;28;20440;-75
2022/08/31 15:55:52;;;;;;;0.87;0.87;;;22.70;70.20;;;;;;5035031;28;20474;-74
2022/08/31 15:58:20;;;;;;;1.00;1.00;;;22.60;73.30;;;;;;5035421;28;20513;-75
2022/08/31 16:00:49;;;;;;;0.90;0.90;;;22.10;72.30;;;;;;5034628;28;20598;-74
2022/08/31 16:03:16;;;;;;;1.10;1.00;;;21.50;73.30;;;;;;5034010;28;20450;-74
2022/08/31 16:05:43;;;;;;;0.97;0.90;;;21.30;77.10;;;;;;5033938;28;20448;-74
2022/08/31 16:08:11;;;;;;;1.00;1.00;;;21.20;77.90;;;;;;5033917;28;20523;-74
2022/08/31 16:10:42;;;;;;;0.80;0.80;;;21.20;78.50;;;;;;5033786;28;20517;-75
2022/08/31 16:13:10;;;;;;;1.10;1.00;;;21.20;78.00;;;;;;5033820;28;20481;-75
2022/08/31 16:15:37;;;;;;;0.80;0.80;;;21.20;77.70;;;;;;5033691;28;20478;-75
2022/08/31 16:18:05;;;;;;;0.87;0.87;;;21.20;77.70;;;;;;5033756;28;20498;-74
2022/08/31 16:20:33;;;;;;;1.40;1.00;;;21.20;78.40;;;;;;5033574;28;20447;-75
2022/08/31 16:23:00;;;;;;;0.77;0.77;;;21.20;78.40;;;;;;5033387;28;20515;-75
2022/08/31 16:25:30;;;;;;;0.80;0.80;;;21.20;78.40;;;;;;5033562;28;20443;-75
2022/08/31 16:28:00;;;;;;;1.20;0.87;;;21.20;78.70;;;;;;5033523;28;20456;-75
2022/08/31 16:30:27;;;;;;;0.70;0.70;;;21.30;78.70;;;;;;5034509;28;20535;-76